Time;durP1;ratioP1;P1;durP2;ratioP2;P2;SDS_P1;SDS_P2;PMS_P1;PMS_P2;Temp;Humidity;BMP_temperature;BMP_pressure;BME280_temperature;BME280_humidity;BME280_pressure;Samples;Min_cycle;Max_cycle;Signal;HPM_P1;HPM_P2
2022/01/09 05:57:34;;;;;;;29.30;3.47;;;5.80;99.90;;;;;;6154005;23;20386;-86
2022/01/09 06:00:04;;;;;;;33.30;4.53;;;5.60;99.90;;;;;;6105592;23;20025;-87
2022/01/09 06:02:41;;;;;;;39.83;4.18;;;5.80;99.90;;;;;;6104356;23;20245;-87
2022/01/09 06:05:31;;;;;;;39.20;4.15;;;5.30;99.90;;;;;;6130875;23;20017;-87
2022/01/09 06:08:24;;;;;;;44.97;4.63;;;5.80;99.90;;;;;;6129838;23;20021;-87
2022/01/09 06:10:57;;;;;;;39.40;4.00;;;5.70;99.90;;;;;;6103015;23;20088;-87
2022/01/09 06:13:46;;;;;;;38.42;4.00;;;6.80;99.90;;;;;;6102988;23;20364;-88
2022/01/09 06:16:26;;;;;;;31.58;4.57;;;5.20;99.90;;;;;;6127381;23;20017;-88
2022/01/09 06:19:08;;;;;;;28.13;3.90;;;5.20;99.90;;;;;;6034106;23;20071;-87
2022/01/09 06:21:51;;;;;;;31.55;4.38;;;5.60;99.90;;;;;;6009675;23;20015;-87
2022/01/09 06:24:54;;;;;;;;;;;;;;;;;;;;;
2022/01/09 06:27:47;;;;;;;37.25;3.95;;;5.60;99.90;;;;;;6011178;23;20018;-88
2022/01/09 06:30:19;;;;;;;31.20;3.67;;;6.00;99.90;;;;;;6010759;23;20055;-87
2022/01/09 06:33:16;;;;;;;34.22;3.78;;;6.80;99.90;;;;;;6011091;23;20333;-88
2022/01/09 06:36:04;;;;;;;;;;;;;;;;;;;;;
2022/01/09 06:41:40;;;;;;;26.75;3.13;;;5.00;99.90;;;;;;6007168;23;20398;-87
2022/01/09 06:44:08;;;;;;;24.30;3.55;;;5.50;99.90;;;;;;6004341;23;20018;-87
2022/01/09 06:46:39;;;;;;;32.92;3.50;;;5.60;99.90;;;;;;6034656;23;20019;-90
2022/01/09 06:49:10;;;;;;;32.55;3.63;;;6.80;99.90;;;;;;6020625;23;20019;-89
2022/01/09 06:51:42;;;;;;;25.20;3.08;;;5.10;99.90;;;;;;6067213;23;20228;-87
2022/01/09 06:54:08;;;;;;;35.10;3.88;;;5.60;99.90;;;;;;6066694;23;20018;-89
2022/01/09 06:56:40;;;;;;;24.13;3.17;;;6.80;99.90;;;;;;6068048;23;20054;-88
2022/01/09 06:59:09;;;;;;;29.33;3.72;;;5.60;99.90;;;;;;6066467;23;20085;-87
2022/01/09 07:01:35;;;;;;;25.90;2.80;;;6.20;99.90;;;;;;6066645;23;20014;-89
2022/01/09 07:04:01;;;;;;;23.63;2.92;;;6.60;99.90;;;;;;6076870;23;20011;-88
2022/01/09 07:06:29;;;;;;;22.20;2.83;;;5.50;99.90;;;;;;6069356;23;20069;-87
2022/01/09 07:08:55;;;;;;;33.08;3.60;;;5.80;99.90;;;;;;6056551;23;20053;-89
2022/01/09 07:11:24;;;;;;;32.00;3.50;;;6.60;99.90;;;;;;6103604;23;20433;-87
2022/01/09 07:14:53;;;;;;;26.40;3.20;;;6.50;99.90;;;;;;6128559;23;20013;-89
2022/01/09 07:17:22;;;;;;;34.45;3.55;;;6.10;99.90;;;;;;5988103;23;20079;-87
2022/01/09 07:19:50;;;;;;;22.77;2.55;;;5.90;99.90;;;;;;6011228;23;20019;-88
2022/01/09 07:22:16;;;;;;;26.67;2.97;;;5.80;99.90;;;;;;6010983;23;20015;-89
2022/01/09 07:24:42;;;;;;;24.30;2.80;;;5.90;99.90;;;;;;5988054;23;20046;-84
2022/01/09 07:27:08;;;;;;;27.83;3.67;;;6.20;99.90;;;;;;5990001;23;20043;-86
2022/01/09 07:29:34;;;;;;;19.92;2.97;;;6.10;99.90;;;;;;5986515;23;20019;-89
2022/01/09 07:32:01;;;;;;;27.65;3.75;;;6.20;99.90;;;;;;6010004;23;20452;-86
2022/01/09 07:34:26;;;;;;;32.17;3.92;;;6.50;99.90;;;;;;6010809;23;20107;-86
2022/01/09 07:41:12;;;;;;;23.45;3.10;;;5.40;99.90;;;;;;6035819;23;20387;-86
2022/01/09 07:43:38;;;;;;;32.15;3.42;;;5.30;99.90;;;;;;5988475;23;20127;-86
2022/01/09 07:46:04;;;;;;;27.05;3.38;;;5.30;99.90;;;;;;5987480;23;20039;-84
2022/01/09 07:48:30;;;;;;;27.60;3.30;;;5.30;99.90;;;;;;5987103;23;20046;-85
2022/01/09 07:50:56;;;;;;;32.33;3.60;;;5.60;99.90;;;;;;6010216;23;20514;-84
2022/01/09 07:53:40;;;;;;;20.42;2.45;;;5.20;99.90;;;;;;6009878;23;20091;-85
2022/01/09 07:56:05;;;;;;;21.77;3.05;;;5.50;99.90;;;;;;6102358;23;20025;-84
2022/01/09 07:58:31;;;;;;;22.63;2.42;;;6.10;99.90;;;;;;6126702;23;20020;-85
2022/01/09 08:00:58;;;;;;;26.77;3.10;;;5.20;99.90;;;;;;6100308;23;20326;-84
2022/01/09 08:03:24;;;;;;;23.08;2.70;;;6.20;99.90;;;;;;6102958;23;20390;-84
2022/01/09 08:05:49;;;;;;;26.95;3.08;;;6.00;99.90;;;;;;6102725;23;20068;-87
2022/01/09 08:08:15;;;;;;;21.15;2.65;;;6.10;99.90;;;;;;6101788;23;20464;-84
2022/01/09 08:10:49;;;;;;;29.55;3.40;;;5.70;99.90;;;;;;6102577;23;20021;-86
2022/01/09 08:13:15;;;;;;;23.63;2.50;;;5.10;99.90;;;;;;6101974;23;20039;-85
2022/01/09 08:15:41;;;;;;;25.95;3.17;;;5.90;99.90;;;;;;6102427;23;20092;-85
2022/01/09 08:21:18;;;;;;;28.58;3.13;;;5.00;99.90;;;;;;6091300;23;20148;-87
2022/01/09 08:23:44;;;;;;;24.33;2.80;;;4.90;99.90;;;;;;6043102;23;20462;-86
2022/01/09 08:26:10;;;;;;;23.75;3.00;;;5.10;99.90;;;;;;6043420;23;20015;-86
2022/01/09 08:28:36;;;;;;;21.55;2.45;;;5.80;99.90;;;;;;6043698;23;20714;-86
2022/01/09 08:31:24;;;;;;;25.35;2.50;;;6.40;99.90;;;;;;6067057;23;20015;-87
2022/01/09 08:33:58;;;;;;;31.85;3.10;;;5.00;99.90;;;;;;6068837;23;20082;-86
2022/01/09 08:36:30;;;;;;;20.30;2.55;;;6.00;99.90;;;;;;6043191;23;20374;-86
2022/01/09 08:39:34;;;;;;;23.40;2.60;;;5.00;99.90;;;;;;6042987;23;20102;-86
2022/01/09 08:42:19;;;;;;;23.08;2.78;;;5.30;99.90;;;;;;5981873;23;20156;-87
2022/01/09 08:48:36;;;;;;;17.40;2.30;;;5.10;99.90;;;;;;5922376;24;20028;-87
2022/01/09 08:51:45;;;;;;;21.77;2.65;;;5.10;99.90;;;;;;5878378;23;20507;-87
2022/01/09 09:03:29;;;;;;;14.95;1.92;;;4.70;99.90;;;;;;5969809;24;20046;-86
2022/01/09 09:05:56;;;;;;;21.85;3.08;;;5.40;99.90;;;;;;5907773;24;20070;-84
2022/01/09 09:08:44;;;;;;;;;;;;;;;;;;;;;
2022/01/09 09:11:28;;;;;;;16.00;2.53;;;4.30;99.90;;;;;;5975137;23;20209;-87
2022/01/09 09:13:54;;;;;;;20.52;2.33;;;6.30;99.90;;;;;;6038602;23;20058;-84
2022/01/09 09:16:43;;;;;;;21.90;2.90;;;5.80;99.90;;;;;;6014199;23;20131;-86
2022/01/09 09:20:04;;;;;;;;;;;;;;;;;;;;;
2022/01/09 09:26:15;;;;;;;26.80;2.95;;;5.10;99.90;;;;;;6063391;23;20017;-83
2022/01/09 09:29:28;;;;;;;18.08;2.17;;;5.30;99.90;;;;;;6018607;23;20019;-81
2022/01/09 09:31:54;;;;;;;20.88;2.88;;;5.50;99.90;;;;;;6015654;23;20018;-80
2022/01/09 09:34:20;;;;;;;15.95;2.20;;;6.50;99.90;;;;;;6063253;23;20018;-80
2022/01/09 09:36:45;;;;;;;13.43;2.17;;;5.50;99.90;;;;;;6015655;23;20105;-77
2022/01/09 09:39:12;;;;;;;15.10;2.17;;;5.40;99.90;;;;;;6063238;23;20022;-76
2022/01/09 09:41:39;;;;;;;15.25;2.13;;;5.40;99.90;;;;;;6015964;23;20483;-75
2022/01/09 09:44:07;;;;;;;12.38;2.65;;;5.50;99.90;;;;;;6062868;23;20143;-75
2022/01/09 09:46:34;;;;;;;20.52;2.70;;;5.40;99.90;;;;;;6038536;23;20010;-76
2022/01/09 09:48:59;;;;;;;21.92;2.92;;;5.40;99.90;;;;;;6063082;23;20018;-76
2022/01/09 09:51:25;;;;;;;13.98;2.70;;;5.40;99.90;;;;;;6039443;23;20026;-75
2022/01/09 09:53:53;;;;;;;17.90;2.97;;;5.40;99.90;;;;;;6037002;23;20502;-75
2022/01/09 09:56:19;;;;;;;16.23;2.80;;;5.50;99.90;;;;;;6084207;23;20417;-75
2022/01/09 09:58:47;;;;;;;15.43;2.60;;;5.50;99.90;;;;;;6121099;23;20053;-75
2022/01/09 10:01:34;;;;;;;12.27;1.88;;;5.60;99.90;;;;;;6096794;23;20125;-75
2022/01/09 10:04:10;;;;;;;18.60;2.50;;;5.60;99.90;;;;;;6122964;23;20086;-74
2022/01/09 10:06:44;;;;;;;21.17;2.85;;;5.50;99.90;;;;;;6125290;23;20101;-74
2022/01/09 10:09:15;;;;;;;16.50;2.60;;;5.50;99.90;;;;;;6126043;23;20116;-76
2022/01/09 10:11:47;;;;;;;15.18;1.80;;;5.60;99.90;;;;;;6127004;23;20036;-76
2022/01/09 10:14:14;;;;;;;16.77;2.25;;;5.50;99.90;;;;;;6126362;23;20009;-76
2022/01/09 10:16:40;;;;;;;16.15;2.03;;;5.60;99.90;;;;;;6101909;23;20488;-76
2022/01/09 10:19:05;;;;;;;14.60;1.83;;;5.50;99.90;;;;;;6126887;23;20013;-77
2022/01/09 10:21:31;;;;;;;12.88;2.00;;;5.50;99.90;;;;;;6126046;23;20040;-77
2022/01/09 10:24:02;;;;;;;19.27;2.17;;;5.60;99.90;;;;;;6126883;23;20112;-76
2022/01/09 10:26:30;;;;;;;9.60;1.70;;;5.60;99.90;;;;;;6102944;23;20017;-76
2022/01/09 10:28:56;;;;;;;13.18;2.15;;;5.50;99.90;;;;;;6101905;23;20394;-77
2022/01/09 10:31:21;;;;;;;14.15;2.03;;;5.50;99.90;;;;;;6126613;23;20043;-77
2022/01/09 10:33:57;;;;;;;21.67;2.17;;;5.40;99.90;;;;;;6127261;23;20013;-76
2022/01/09 10:36:43;;;;;;;14.77;2.38;;;6.00;99.90;;;;;;6127370;23;20088;-76
2022/01/09 10:39:16;;;;;;;17.52;2.20;;;5.60;99.90;;;;;;6127194;23;20044;-77
2022/01/09 10:41:44;;;;;;;15.55;2.25;;;5.80;99.90;;;;;;6101943;23;20021;-77
2022/01/09 10:44:22;;;;;;;25.02;2.92;;;5.50;99.90;;;;;;6102348;23;20072;-76
2022/01/09 10:46:55;;;;;;;23.98;2.72;;;5.50;99.90;;;;;;6102754;23;20013;-77
2022/01/09 10:49:21;;;;;;;19.30;2.40;;;5.50;99.90;;;;;;6103086;23;20096;-76
2022/01/09 10:51:48;;;;;;;16.70;2.25;;;5.50;99.90;;;;;;6125791;23;20048;-78
2022/01/09 10:54:30;;;;;;;12.10;2.25;;;5.60;99.90;;;;;;6101200;23;20014;-78
2022/01/09 10:57:26;;;;;;;14.68;2.20;;;5.60;99.90;;;;;;6100726;23;20017;-78
2022/01/09 10:59:52;;;;;;;18.33;2.42;;;5.60;99.90;;;;;;6125119;23;20359;-77
2022/01/09 11:02:19;;;;;;;19.98;2.75;;;5.70;99.90;;;;;;6125571;23;20016;-77
2022/01/09 11:04:47;;;;;;;20.20;2.75;;;5.80;99.90;;;;;;6100717;23;20009;-77
2022/01/09 11:07:13;;;;;;;24.27;2.65;;;5.80;99.90;;;;;;6120804;23;20079;-77
2022/01/09 11:09:42;;;;;;;11.63;2.00;;;5.80;99.90;;;;;;6096333;23;20026;-77
2022/01/09 11:12:08;;;;;;;18.05;2.22;;;6.10;99.90;;;;;;6121426;23;20318;-76
2022/01/09 11:14:40;;;;;;;20.98;2.58;;;5.80;99.90;;;;;;6096664;23;20049;-77
2022/01/09 11:17:08;;;;;;;13.55;1.90;;;5.90;99.90;;;;;;6095949;23;20018;-80
2022/01/09 11:19:34;;;;;;;11.88;1.70;;;5.90;99.90;;;;;;6121853;23;20021;-79
2022/01/09 11:22:03;;;;;;;17.65;2.42;;;6.00;99.90;;;;;;6121131;23;20018;-79
2022/01/09 11:25:06;;;;;;;12.20;2.33;;;5.90;99.90;;;;;;6122215;23;20040;-79
2022/01/09 11:28:03;;;;;;;12.27;2.05;;;5.90;99.90;;;;;;6121913;23;20013;-79
2022/01/09 11:30:56;;;;;;;9.40;2.33;;;6.00;99.90;;;;;;6123107;23;20010;-79
2022/01/09 11:33:27;;;;;;;11.85;2.38;;;6.00;99.90;;;;;;5986914;23;20142;-79
2022/01/09 11:36:14;;;;;;;11.23;1.90;;;5.90;99.90;;;;;;5986230;23;20338;-79
2022/01/09 11:38:54;;;;;;;15.18;1.98;;;6.00;99.90;;;;;;6008743;23;20082;-79
2022/01/09 11:41:24;;;;;;;17.00;2.30;;;6.10;99.90;;;;;;6011357;23;20593;-79
2022/01/09 11:43:56;;;;;;;11.23;2.17;;;6.20;99.90;;;;;;5986899;23;20064;-79
2022/01/09 11:46:24;;;;;;;22.95;2.38;;;6.30;99.90;;;;;;6010815;23;20138;-79
2022/01/09 11:48:52;;;;;;;19.52;2.67;;;6.50;99.90;;;;;;6011261;23;20019;-79
2022/01/09 11:51:19;;;;;;;19.65;2.47;;;6.50;99.90;;;;;;5987865;23;20019;-79
2022/01/09 11:54:08;;;;;;;14.32;2.08;;;6.40;99.90;;;;;;6010954;23;20042;-79
2022/01/09 11:56:43;;;;;;;11.68;1.92;;;6.60;99.90;;;;;;6010997;23;20030;-79
2022/01/09 11:59:47;;;;;;;19.63;2.63;;;6.60;99.90;;;;;;5987897;23;20023;-79
2022/01/09 12:02:16;;;;;;;18.70;2.88;;;6.60;99.90;;;;;;6010631;23;20019;-79
2022/01/09 12:04:42;;;;;;;20.60;2.53;;;6.70;99.90;;;;;;5987510;23;20026;-79
2022/01/09 12:07:31;;;;;;;12.65;1.75;;;6.80;99.90;;;;;;5987319;23;20053;-79
2022/01/09 12:09:58;;;;;;;16.08;2.17;;;6.90;99.90;;;;;;6048755;23;20017;-79
2022/01/09 12:12:36;;;;;;;11.93;2.10;;;7.10;99.90;;;;;;6122822;23;20094;-79
2022/01/09 12:15:04;;;;;;;15.68;2.25;;;7.00;99.90;;;;;;6122679;23;20066;-79
2022/01/09 12:17:33;;;;;;;15.13;2.20;;;7.00;99.90;;;;;;6122139;23;20018;-79
2022/01/09 12:20:05;;;;;;;14.32;2.30;;;7.00;99.90;;;;;;6122977;23;20014;-79
2022/01/09 12:22:47;;;;;;;17.98;2.53;;;7.00;99.90;;;;;;6121730;23;20024;-79
2022/01/09 12:25:22;;;;;;;15.50;2.58;;;7.10;99.90;;;;;;6122680;23;20048;-79
2022/01/09 12:28:00;;;;;;;11.95;1.92;;;7.20;99.90;;;;;;6097907;23;20010;-79
2022/01/09 12:30:54;;;;;;;18.65;2.80;;;7.20;99.90;;;;;;6097693;23;20050;-80
2022/01/09 12:33:34;;;;;;;18.60;2.00;;;7.20;99.90;;;;;;6119080;23;20036;-77
2022/01/09 12:36:18;;;;;;;20.42;2.28;;;7.20;99.90;;;;;;6120044;23;20093;-77
2022/01/09 12:38:55;;;;;;;13.38;2.05;;;7.20;99.90;;;;;;6095502;23;20024;-77
2022/01/09 12:41:27;;;;;;;25.02;3.00;;;7.20;99.90;;;;;;6073205;23;20013;-78
2022/01/09 12:44:12;;;;;;;13.38;2.10;;;7.40;99.90;;;;;;6096297;23;20014;-76
2022/01/09 12:46:41;;;;;;;10.50;1.90;;;7.40;99.90;;;;;;6095926;23;20014;-77
2022/01/09 12:49:12;;;;;;;16.95;2.28;;;7.40;99.90;;;;;;6120962;23;20049;-77
2022/01/09 12:51:46;;;;;;;16.20;2.72;;;7.30;99.90;;;;;;6121593;23;20020;-77
2022/01/09 12:54:11;;;;;;;18.42;2.00;;;7.30;99.90;;;;;;6122125;23;20033;-76
2022/01/09 12:56:38;;;;;;;13.90;2.30;;;7.10;99.90;;;;;;6123258;23;20018;-78
2022/01/09 12:59:12;;;;;;;12.52;2.22;;;7.10;99.90;;;;;;6099034;23;20020;-78
2022/01/09 13:01:43;;;;;;;16.58;2.65;;;7.00;99.90;;;;;;6122573;23;20038;-77
2022/01/09 13:04:18;;;;;;;17.70;1.83;;;6.90;99.90;;;;;;6123846;23;20292;-77
2022/01/09 13:06:47;;;;;;;;;;;6.90;99.90;;;;;;6101098;23;20009;-78
2022/01/09 13:09:16;;;;;;;8.95;1.50;;;6.90;99.90;;;;;;6126564;23;19923;-79
2022/01/09 13:11:42;;;;;;;15.95;2.17;;;7.00;99.90;;;;;;6103609;23;20013;-79
2022/01/09 13:14:08;;;;;;;18.20;2.30;;;7.00;99.90;;;;;;6104025;23;20021;-79
2022/01/09 13:16:35;;;;;;;17.05;2.15;;;7.00;99.90;;;;;;6128361;23;20017;-79
2022/01/09 13:19:12;;;;;;;15.48;2.00;;;7.00;99.90;;;;;;6128742;23;20022;-79
2022/01/09 13:21:40;;;;;;;20.98;2.33;;;7.00;99.90;;;;;;6128037;23;20041;-80
2022/01/09 13:24:09;;;;;;;14.98;2.20;;;6.90;99.90;;;;;;6128083;23;20028;-79
2022/01/09 13:26:45;;;;;;;16.58;2.35;;;7.10;99.90;;;;;;6128636;23;20381;-80
2022/01/09 13:29:25;;;;;;;18.35;2.65;;;7.10;99.90;;;;;;6128777;23;20342;-80
2022/01/09 13:31:59;;;;;;;22.25;2.60;;;7.10;99.90;;;;;;6127836;23;20024;-80
2022/01/09 13:34:45;;;;;;;17.83;2.38;;;7.10;99.90;;;;;;6104335;23;20021;-80
2022/01/09 13:37:13;;;;;;;12.65;2.00;;;7.10;99.90;;;;;;6127973;23;20049;-80
2022/01/09 13:39:41;;;;;;;16.73;1.73;;;7.00;99.90;;;;;;6127809;23;20018;-80
2022/01/09 13:42:13;;;;;;;12.75;1.80;;;6.90;99.90;;;;;;6127882;23;20053;-80
2022/01/09 13:44:42;;;;;;;11.57;1.50;;;6.90;99.90;;;;;;6128109;23;20109;-80
2022/01/09 13:47:14;;;;;;;13.00;1.85;;;6.80;99.90;;;;;;6127811;23;20009;-80
2022/01/09 13:49:57;;;;;;;12.20;1.90;;;6.80;99.90;;;;;;6128338;23;20025;-80
2022/01/09 13:52:25;;;;;;;7.35;1.95;;;6.70;99.90;;;;;;6130200;23;20017;-80
2022/01/09 13:55:00;;;;;;;16.60;2.05;;;6.60;99.90;;;;;;6129771;23;20013;-79
2022/01/09 13:57:29;;;;;;;16.38;2.20;;;6.60;99.90;;;;;;6105817;23;20017;-80
2022/01/09 14:00:03;;;;;;;11.82;1.80;;;6.50;99.90;;;;;;6102536;23;20013;-80
2022/01/09 14:02:39;;;;;;;11.05;1.70;;;6.40;99.90;;;;;;6127413;23;20042;-79
2022/01/09 14:05:15;;;;;;;9.27;1.52;;;6.40;99.90;;;;;;6156897;23;20009;-79
2022/01/09 14:07:52;;;;;;;8.40;1.50;;;6.40;99.90;;;;;;6127574;23;20434;-77
2022/01/09 14:10:19;;;;;;;12.13;1.85;;;6.30;99.90;;;;;;6103514;23;20022;-78
2022/01/09 14:12:46;;;;;;;12.93;1.50;;;6.40;99.90;;;;;;6128293;23;20514;-78
2022/01/09 14:15:17;;;;;;;13.02;2.33;;;6.10;99.90;;;;;;6127791;23;20311;-77
2022/01/09 14:17:51;;;;;;;13.43;2.58;;;6.10;99.90;;;;;;6101977;23;20025;-79
2022/01/09 14:20:21;;;;;;;13.52;2.90;;;6.10;99.90;;;;;;6153866;23;20044;-77
2022/01/09 14:23:06;;;;;;;6.45;1.52;;;6.00;99.90;;;;;;6103241;23;20013;-77
2022/01/09 14:25:38;;;;;;;10.05;2.80;;;6.00;99.90;;;;;;6126813;23;20311;-79
2022/01/09 14:28:11;;;;;;;13.90;2.25;;;6.00;99.90;;;;;;6125092;23;20469;-78
2022/01/09 14:30:43;;;;;;;12.93;2.40;;;5.90;99.90;;;;;;6124714;23;20026;-79
2022/01/09 14:33:18;;;;;;;13.50;1.60;;;5.80;99.90;;;;;;6127860;23;20045;-79
2022/01/09 14:35:46;;;;;;;11.25;1.70;;;5.80;99.90;;;;;;6127831;23;20448;-80
2022/01/09 14:38:29;;;;;;;10.80;1.55;;;5.70;99.90;;;;;;6127406;23;20489;-79
2022/01/09 14:40:57;;;;;;;9.80;1.77;;;5.70;99.90;;;;;;6127373;23;20032;-79
2022/01/09 14:43:25;;;;;;;9.95;1.52;;;5.60;99.90;;;;;;6125145;23;20103;-78
2022/01/09 14:45:52;;;;;;;9.70;1.52;;;5.50;99.90;;;;;;6102693;23;20085;-78
2022/01/09 14:48:19;;;;;;;10.85;1.30;;;5.50;99.90;;;;;;6102298;23;20014;-78
2022/01/09 14:50:47;;;;;;;8.77;1.55;;;5.50;99.90;;;;;;6125901;23;20473;-78
2022/01/09 14:53:13;;;;;;;7.88;1.65;;;5.80;99.90;;;;;;6101359;23;20017;-78
2022/01/09 14:55:41;;;;;;;11.98;1.77;;;5.50;99.90;;;;;;6126048;23;20010;-77
2022/01/09 14:58:07;;;;;;;11.88;2.05;;;5.50;99.90;;;;;;6101547;23;20107;-79
2022/01/09 15:00:32;;;;;;;9.90;1.77;;;5.50;99.90;;;;;;6126108;23;20334;-79
2022/01/09 15:02:59;;;;;;;10.15;1.58;;;5.60;99.90;;;;;;6125927;23;20014;-79
2022/01/09 15:05:26;;;;;;;11.57;1.67;;;5.50;99.90;;;;;;6125474;23;20084;-79
2022/01/09 15:07:52;;;;;;;13.93;2.10;;;5.60;99.90;;;;;;6124947;23;20018;-79
2022/01/09 15:10:18;;;;;;;14.90;2.03;;;5.60;99.90;;;;;;6152219;23;20496;-78
2022/01/09 15:12:43;;;;;;;15.73;2.08;;;5.70;99.90;;;;;;6125032;23;20024;-77
2022/01/09 15:15:10;;;;;;;10.43;1.70;;;5.70;99.90;;;;;;6101106;23;20017;-76
2022/01/09 15:17:36;;;;;;;14.63;2.10;;;5.60;99.90;;;;;;6098697;23;20171;-76
2022/01/09 15:20:05;;;;;;;13.00;1.85;;;5.50;99.90;;;;;;6100599;23;20149;-76
2022/01/09 15:22:31;;;;;;;11.13;2.15;;;5.50;99.90;;;;;;6126664;23;20418;-76
2022/01/09 15:24:57;;;;;;;16.75;2.22;;;5.60;99.90;;;;;;6101293;23;20087;-76
2022/01/09 15:27:23;;;;;;;13.40;2.17;;;5.50;99.90;;;;;;6127034;23;20018;-76
2022/01/09 15:29:49;;;;;;;13.05;2.10;;;5.50;99.90;;;;;;6126798;23;20088;-76
2022/01/09 15:32:15;;;;;;;12.35;2.38;;;5.60;99.90;;;;;;6125468;23;20401;-77
2022/01/09 15:34:40;;;;;;;10.93;2.30;;;5.40;99.90;;;;;;6126155;23;20018;-79
2022/01/09 15:37:06;;;;;;;19.25;2.40;;;5.40;99.90;;;;;;6126544;23;20116;-78
2022/01/09 15:39:33;;;;;;;11.52;1.85;;;5.30;99.90;;;;;;6126045;23;20064;-79
2022/01/09 15:42:00;;;;;;;14.95;2.40;;;5.30;99.90;;;;;;6127539;23;20010;-78
2022/01/09 15:44:26;;;;;;;11.63;1.83;;;5.30;99.90;;;;;;6126043;23;20029;-77
2022/01/09 15:46:53;;;;;;;20.15;3.03;;;5.30;99.90;;;;;;6127730;23;20009;-77
2022/01/09 15:49:18;;;;;;;12.80;2.30;;;5.10;99.90;;;;;;6126695;23;20426;-77
2022/01/09 15:51:44;;;;;;;20.58;2.65;;;5.10;99.90;;;;;;6127619;23;20018;-78
2022/01/09 15:54:10;;;;;;;8.32;2.13;;;5.10;99.90;;;;;;6126590;23;20101;-78
2022/01/09 15:56:36;;;;;;;11.63;2.17;;;5.00;99.90;;;;;;6127691;23;20024;-78
2022/01/09 15:59:02;;;;;;;20.83;2.35;;;5.00;99.90;;;;;;6101410;23;20171;-79
2022/01/09 16:01:27;;;;;;;15.50;2.90;;;4.90;99.90;;;;;;6101975;23;20005;-78
2022/01/09 16:03:54;;;;;;;11.07;2.03;;;5.20;99.90;;;;;;6125889;23;20489;-78
2022/01/09 16:06:23;;;;;;;20.67;2.60;;;5.60;99.90;;;;;;6126723;23;20012;-78
2022/01/09 16:08:54;;;;;;;25.52;2.72;;;4.80;99.90;;;;;;6126757;23;20076;-78
2022/01/09 16:11:21;;;;;;;10.23;2.28;;;4.80;99.90;;;;;;6102535;23;20025;-78
2022/01/09 16:13:47;;;;;;;17.42;2.20;;;4.80;99.90;;;;;;6126962;23;20022;-77
2022/01/09 16:16:12;;;;;;;15.88;2.60;;;4.70;99.90;;;;;;6102181;23;20155;-78
2022/01/09 16:18:39;;;;;;;12.85;2.83;;;4.40;99.90;;;;;;6102067;23;20041;-77
2022/01/09 16:21:05;;;;;;;12.90;2.30;;;5.30;99.90;;;;;;6126984;23;20367;-78
2022/01/09 16:23:30;;;;;;;13.73;2.22;;;4.50;99.90;;;;;;6126395;23;20017;-78
2022/01/09 16:25:59;;;;;;;16.77;2.70;;;4.40;99.90;;;;;;6126102;23;20106;-78
2022/01/09 16:28:25;;;;;;;16.17;2.45;;;4.40;99.90;;;;;;6101449;23;20036;-78
2022/01/09 16:30:54;;;;;;;14.48;2.53;;;4.40;99.90;;;;;;6102365;23;20033;-78
2022/01/09 16:33:25;;;;;;;20.48;2.60;;;4.20;99.90;;;;;;6102259;23;20013;-78
2022/01/09 16:35:53;;;;;;;14.18;2.20;;;4.40;99.90;;;;;;6125920;23;20453;-79
2022/01/09 16:38:19;;;;;;;11.50;1.90;;;4.50;99.90;;;;;;6125107;23;20037;-79
2022/01/09 16:40:44;;;;;;;13.85;3.40;;;4.50;99.90;;;;;;6125581;23;20025;-79
2022/01/09 16:43:10;;;;;;;10.25;2.40;;;4.60;99.90;;;;;;6125146;23;20092;-81
2022/01/09 16:45:36;;;;;;;8.65;2.13;;;4.60;99.90;;;;;;6125284;23;20024;-79
2022/01/09 16:48:01;;;;;;;15.15;1.73;;;5.00;99.90;;;;;;6125732;23;20028;-81
2022/01/09 16:51:04;;;;;;;7.50;2.13;;;4.60;99.90;;;;;;6126071;23;20024;-84
2022/01/09 16:56:29;;;;;;;11.75;2.13;;;5.20;99.90;;;;;;6036483;23;20026;-82
2022/01/09 16:58:55;;;;;;;14.52;2.42;;;5.80;99.90;;;;;;6013689;23;20049;-81
2022/01/09 17:01:23;;;;;;;18.55;5.40;;;5.70;99.90;;;;;;6038030;23;20080;-81
2022/01/09 17:07:31;;;;;;;16.75;6.47;;;4.70;99.90;;;;;;6149769;23;20045;-80
2022/01/09 17:09:59;;;;;;;18.80;8.05;;;4.70;99.90;;;;;;6124643;23;20382;-78
2022/01/09 17:12:24;;;;;;;16.30;5.13;;;4.60;99.90;;;;;;6152727;23;20427;-78
2022/01/09 17:14:50;;;;;;;13.25;4.53;;;4.50;99.90;;;;;;6126272;23;20044;-78
2022/01/09 17:17:21;;;;;;;14.52;2.45;;;4.50;99.90;;;;;;6125247;23;20017;-78
2022/01/09 17:19:53;;;;;;;17.73;4.18;;;5.10;99.90;;;;;;6101153;23;20033;-78
2022/01/09 17:22:19;;;;;;;31.42;13.68;;;4.40;99.90;;;;;;6123542;23;20025;-77
2022/01/09 17:24:45;;;;;;;43.63;22.95;;;4.30;99.90;;;;;;6097124;23;20052;-78
2022/01/09 17:27:11;;;;;;;43.90;22.55;;;4.80;99.90;;;;;;6123917;23;20009;-77
2022/01/09 17:29:36;;;;;;;26.75;11.65;;;4.20;99.90;;;;;;6077537;23;20056;-76
2022/01/09 17:32:03;;;;;;;25.98;12.25;;;4.10;99.90;;;;;;6104772;23;20035;-76
2022/01/09 17:34:29;;;;;;;35.78;13.88;;;4.10;99.90;;;;;;6127122;23;20013;-76
2022/01/09 17:36:55;;;;;;;23.17;11.05;;;4.00;99.90;;;;;;6126948;23;20029;-76
2022/01/09 17:39:20;;;;;;;25.65;6.93;;;4.00;99.90;;;;;;6101636;23;20021;-77
2022/01/09 17:41:46;;;;;;;37.22;17.98;;;4.00;99.90;;;;;;6101806;23;20021;-76
2022/01/09 17:44:41;;;;;;;26.77;10.05;;;3.90;99.90;;;;;;6129990;23;20318;-82
2022/01/09 17:47:34;;;;;;;24.85;7.95;;;3.90;99.90;;;;;;6129126;23;20049;-81
2022/01/09 17:50:29;;;;;;;20.27;5.45;;;3.20;99.90;;;;;;6103409;23;20018;-81
2022/01/09 17:53:31;;;;;;;15.68;5.97;;;3.90;99.90;;;;;;6103480;23;20057;-81
2022/01/09 17:56:34;;;;;;;;;;;;;;;;;;;;;
2022/01/09 18:02:04;;;;;;;19.75;4.35;;;3.80;99.90;;;;;;6034313;23;20023;-80
2022/01/09 18:04:48;;;;;;;18.50;4.32;;;3.60;99.90;;;;;;6009273;23;20019;-78
2022/01/09 18:07:15;;;;;;;21.13;9.77;;;4.10;99.90;;;;;;6021518;23;20282;-78
2022/01/09 18:09:41;;;;;;;26.85;7.45;;;3.80;99.90;;;;;;6035043;23;20098;-78
2022/01/09 18:12:07;;;;;;;23.75;8.52;;;3.90;99.90;;;;;;6036061;23;20090;-77
2022/01/09 18:14:33;;;;;;;13.95;5.63;;;3.90;99.90;;;;;;6038377;23;20057;-77
2022/01/09 18:16:59;;;;;;;18.80;4.97;;;3.80;99.90;;;;;;6039048;23;20142;-78
2022/01/09 18:19:25;;;;;;;19.13;4.03;;;3.90;99.90;;;;;;6039109;23;20168;-80
2022/01/09 18:21:51;;;;;;;26.27;4.95;;;4.00;99.90;;;;;;6039090;23;20034;-81
2022/01/09 18:24:18;;;;;;;19.50;5.00;;;3.90;99.90;;;;;;6015435;23;20018;-80
2022/01/09 18:26:45;;;;;;;20.80;4.82;;;4.60;99.90;;;;;;6013460;23;20031;-80
2022/01/09 18:29:12;;;;;;;21.60;4.45;;;4.00;99.90;;;;;;6037439;23;20023;-79
2022/01/09 18:31:38;;;;;;;20.33;4.43;;;4.00;99.90;;;;;;6037639;23;20015;-80
2022/01/09 18:34:03;;;;;;;20.65;4.03;;;4.00;99.90;;;;;;6037532;23;20041;-80
2022/01/09 18:36:29;;;;;;;24.02;4.13;;;4.00;99.90;;;;;;6014865;23;20094;-81
2022/01/09 18:38:55;;;;;;;27.20;4.30;;;4.00;99.90;;;;;;6073502;23;20018;-81
2022/01/09 18:41:20;;;;;;;19.95;3.67;;;4.00;99.90;;;;;;6096864;23;20339;-79
2022/01/09 18:43:46;;;;;;;19.58;4.00;;;3.90;99.90;;;;;;6096472;23;20017;-80
2022/01/09 18:46:12;;;;;;;26.30;3.78;;;4.00;99.90;;;;;;6121233;23;20390;-81
2022/01/09 18:48:38;;;;;;;17.55;3.72;;;3.90;99.90;;;;;;6094624;23;20022;-79
2022/01/09 18:51:05;;;;;;;21.10;3.60;;;3.90;99.90;;;;;;6124491;23;20021;-81
2022/01/09 18:53:33;;;;;;;28.42;8.48;;;4.00;99.90;;;;;;6122329;23;20119;-79
2022/01/09 18:55:59;;;;;;;30.45;13.38;;;3.90;99.90;;;;;;6121018;23;20145;-80
2022/01/09 18:58:25;;;;;;;105.28;50.45;;;3.90;99.90;;;;;;6120972;23;20032;-80
2022/01/09 19:00:51;;;;;;;43.03;17.23;;;3.80;99.90;;;;;;6096397;23;20068;-81
2022/01/09 19:03:20;;;;;;;34.03;11.95;;;3.90;99.90;;;;;;6120749;23;20014;-82
2022/01/09 19:05:48;;;;;;;30.40;9.25;;;3.80;99.90;;;;;;6095199;23;20035;-79
2022/01/09 19:08:16;;;;;;;34.03;13.75;;;3.80;99.90;;;;;;6124282;23;20647;-82
2022/01/09 19:10:44;;;;;;;33.05;8.23;;;3.80;99.90;;;;;;6077700;23;20021;-78
2022/01/09 19:13:10;;;;;;;36.25;14.63;;;3.80;99.90;;;;;;6100235;23;20013;-80
2022/01/09 19:15:36;;;;;;;59.88;26.02;;;3.70;99.90;;;;;;6126513;23;20060;-82
2022/01/09 19:18:03;;;;;;;34.42;12.50;;;3.80;99.90;;;;;;6102279;23;20013;-81
2022/01/09 19:20:29;;;;;;;34.40;13.40;;;3.80;99.90;;;;;;6100936;23;20191;-78
2022/01/09 19:22:57;;;;;;;49.88;18.80;;;3.80;99.90;;;;;;6126165;23;20045;-78
2022/01/09 19:25:23;;;;;;;71.10;31.85;;;3.70;99.90;;;;;;6126429;23;20047;-78
2022/01/09 19:27:49;;;;;;;26.45;10.55;;;3.70;99.90;;;;;;6126162;23;20021;-77
2022/01/09 19:30:16;;;;;;;20.77;5.85;;;3.60;99.90;;;;;;6125978;23;20093;-78
2022/01/09 19:32:42;;;;;;;38.45;11.55;;;3.60;99.90;;;;;;6125849;23;20029;-79
2022/01/09 19:35:09;;;;;;;37.08;15.52;;;3.60;99.90;;;;;;6125851;23;20480;-79
2022/01/09 19:37:36;;;;;;;50.00;19.42;;;3.00;99.90;;;;;;6125553;23;20017;-81
2022/01/09 19:40:03;;;;;;;51.75;19.45;;;3.50;99.90;;;;;;6102161;23;20447;-80
2022/01/09 19:42:29;;;;;;;35.05;11.38;;;3.40;99.90;;;;;;6126739;23;20426;-81
2022/01/09 19:44:54;;;;;;;38.58;14.40;;;3.50;99.90;;;;;;6126067;23;20068;-80
2022/01/09 19:47:20;;;;;;;36.70;8.38;;;3.40;99.90;;;;;;6124953;23;20017;-81
2022/01/09 19:49:46;;;;;;;31.35;9.50;;;3.80;99.90;;;;;;6101486;23;20021;-82